Canadon Seco, Argentina
Current Conditions -  °F | °C
As of 5:00 PM on Wednesday 26 Nov 2014 (Local Time) from SAVC Reporting Station
Broken Clouds Broken Clouds  
Wind Chill: 66°   Ceiling: 20000
Heat Index: 66°   Visibility: 6mi
Dew Point: 32°   Wind: 20mph
Humidity: 28%   Direction: 70°ENE
Pressure: 29.88"   Gusts: NA
Location:  46.55°S, 67.58°W
Report Text: SAVC 262000Z 07017KT 9999 SCT040 BKN20019/M00 Q1012
Loading
Personal Weather Stations






























Interactive Weather Map New forecast layout! Learn more

10-Day Weather Forecast

Advertisements
Track Severe Weather on mobile